sensor_id;sensor_type;location;lat;lon;timestamp;temperature;humidity
66128;DHT22;52925;52.436;-1.952;2022-10-26T00:01:03;15.70;80.10
66128;DHT22;52925;52.436;-1.952;2022-10-26T00:02:24;15.60;80.00
66128;DHT22;52925;52.436;-1.952;2022-10-26T00:03:45;15.70;80.10
66128;DHT22;52925;52.436;-1.952;2022-10-26T00:05:06;15.60;80.00
66128;DHT22;52925;52.436;-1.952;2022-10-26T00:06:27;15.60;80.00
66128;DHT22;52925;52.436;-1.952;2022-10-26T00:07:49;15.60;80.00
66128;DHT22;52925;52.436;-1.952;2022-10-26T00:09:09;15.60;80.00
66128;DHT22;52925;52.436;-1.952;2022-10-26T00:10:30;15.60;80.00
66128;DHT22;52925;52.436;-1.952;2022-10-26T00:11:52;15.60;80.00
66128;DHT22;52925;52.436;-1.952;2022-10-26T00:13:12;15.60;80.00
66128;DHT22;52925;52.436;-1.952;2022-10-26T00:14:32;15.60;80.00
66128;DHT22;52925;52.436;-1.952;2022-10-26T00:15:53;15.60;80.00
66128;DHT22;52925;52.436;-1.952;2022-10-26T00:17:14;15.60;80.10
66128;DHT22;52925;52.436;-1.952;2022-10-26T00:18:34;15.60;80.10
66128;DHT22;52925;52.436;-1.952;2022-10-26T00:19:55;15.60;80.10
66128;DHT22;52925;52.436;-1.952;2022-10-26T00:21:16;15.60;80.10
66128;DHT22;52925;52.436;-1.952;2022-10-26T00:22:38;15.70;80.10
66128;DHT22;52925;52.436;-1.952;2022-10-26T00:23:59;15.60;80.20
66128;DHT22;52925;52.436;-1.952;2022-10-26T00:25:21;15.60;80.20
66128;DHT22;52925;52.436;-1.952;2022-10-26T00:26:40;15.60;80.10
66128;DHT22;52925;52.436;-1.952;2022-10-26T00:28:02;15.60;80.20
66128;DHT22;52925;52.436;-1.952;2022-10-26T00:29:21;15.60;80.20
66128;DHT22;52925;52.436;-1.952;2022-10-26T00:30:42;15.60;80.20
66128;DHT22;52925;52.436;-1.952;2022-10-26T00:32:02;15.70;80.30
66128;DHT22;52925;52.436;-1.952;2022-10-26T00:33:23;15.60;80.20
66128;DHT22;52925;52.436;-1.952;2022-10-26T00:34:44;15.60;80.20
66128;DHT22;52925;52.436;-1.952;2022-10-26T00:36:05;15.60;80.30
66128;DHT22;52925;52.436;-1.952;2022-10-26T00:37:27;15.60;80.20
66128;DHT22;52925;52.436;-1.952;2022-10-26T00:38:51;15.60;80.30
66128;DHT22;52925;52.436;-1.952;2022-10-26T00:40:14;15.60;80.40
66128;DHT22;52925;52.436;-1.952;2022-10-26T00:41:34;15.60;80.40
66128;DHT22;52925;52.436;-1.952;2022-10-26T00:42:55;15.60;80.40
66128;DHT22;52925;52.436;-1.952;2022-10-26T00:46:17;15.60;80.40
66128;DHT22;52925;52.436;-1.952;2022-10-26T00:47:41;15.60;80.30
66128;DHT22;52925;52.436;-1.952;2022-10-26T00:49:04;15.70;80.30
66128;DHT22;52925;52.436;-1.952;2022-10-26T00:50:31;15.70;80.30
66128;DHT22;52925;52.436;-1.952;2022-10-26T00:51:52;15.60;80.30
66128;DHT22;52925;52.436;-1.952;2022-10-26T00:53:13;15.60;80.40
66128;DHT22;52925;52.436;-1.952;2022-10-26T00:54:35;15.60;80.40
66128;DHT22;52925;52.436;-1.952;2022-10-26T00:55:56;15.60;80.40
66128;DHT22;52925;52.436;-1.952;2022-10-26T00:57:18;15.60;80.40
66128;DHT22;52925;52.436;-1.952;2022-10-26T00:58:38;15.60;80.40
66128;DHT22;52925;52.436;-1.952;2022-10-26T00:59:59;15.60;80.40
66128;DHT22;52925;52.436;-1.952;2022-10-26T01:01:19;15.60;80.40
66128;DHT22;52925;52.436;-1.952;2022-10-26T01:02:41;15.60;80.50
66128;DHT22;52925;52.436;-1.952;2022-10-26T01:04:02;15.60;80.50
66128;DHT22;52925;52.436;-1.952;2022-10-26T01:05:23;15.60;80.50
66128;DHT22;52925;52.436;-1.952;2022-10-26T01:06:45;15.60;80.60
66128;DHT22;52925;52.436;-1.952;2022-10-26T01:08:06;15.60;80.60
66128;DHT22;52925;52.436;-1.952;2022-10-26T01:09:28;15.60;80.60
66128;DHT22;52925;52.436;-1.952;2022-10-26T01:10:49;15.60;80.60
66128;DHT22;52925;52.436;-1.952;2022-10-26T01:12:10;15.60;80.60
66128;DHT22;52925;52.436;-1.952;2022-10-26T01:13:33;15.60;80.60
66128;DHT22;52925;52.436;-1.952;2022-10-26T01:14:54;15.60;80.60
66128;DHT22;52925;52.436;-1.952;2022-10-26T01:16:28;15.60;80.80
66128;DHT22;52925;52.436;-1.952;2022-10-26T01:17:55;15.60;80.70
66128;DHT22;52925;52.436;-1.952;2022-10-26T01:19:42;15.60;80.70
66128;DHT22;52925;52.436;-1.952;2022-10-26T01:23:03;15.60;80.60
66128;DHT22;52925;52.436;-1.952;2022-10-26T01:24:57;15.60;80.70
66128;DHT22;52925;52.436;-1.952;2022-10-26T01:26:44;15.60;80.70
66128;DHT22;52925;52.436;-1.952;2022-10-26T01:28:17;15.60;80.70
66128;DHT22;52925;52.436;-1.952;2022-10-26T01:31:38;15.60;80.80
66128;DHT22;52925;52.436;-1.952;2022-10-26T01:33:32;15.60;80.70
66128;DHT22;52925;52.436;-1.952;2022-10-26T01:34:58;15.60;80.80
66128;DHT22;52925;52.436;-1.952;2022-10-26T01:36:28;15.60;80.80
66128;DHT22;52925;52.436;-1.952;2022-10-26T01:37:55;15.60;80.80
66128;DHT22;52925;52.436;-1.952;2022-10-26T01:39:20;15.60;80.80
66128;DHT22;52925;52.436;-1.952;2022-10-26T01:40:45;15.60;80.70
66128;DHT22;52925;52.436;-1.952;2022-10-26T01:42:08;15.60;80.80
66128;DHT22;52925;52.436;-1.952;2022-10-26T01:43:34;15.60;80.90
66128;DHT22;52925;52.436;-1.952;2022-10-26T01:44:58;15.60;80.80
66128;DHT22;52925;52.436;-1.952;2022-10-26T01:46:21;15.60;80.80
66128;DHT22;52925;52.436;-1.952;2022-10-26T01:47:46;15.60;80.90
66128;DHT22;52925;52.436;-1.952;2022-10-26T01:49:08;15.60;80.90
66128;DHT22;52925;52.436;-1.952;2022-10-26T01:50:30;15.60;80.90
66128;DHT22;52925;52.436;-1.952;2022-10-26T01:51:52;15.60;81.00
66128;DHT22;52925;52.436;-1.952;2022-10-26T01:53:12;15.60;81.00
66128;DHT22;52925;52.436;-1.952;2022-10-26T01:54:34;15.60;81.00
66128;DHT22;52925;52.436;-1.952;2022-10-26T01:55:55;15.60;81.10
66128;DHT22;52925;52.436;-1.952;2022-10-26T01:57:17;15.60;81.20
66128;DHT22;52925;52.436;-1.952;2022-10-26T01:58:55;15.60;81.10
66128;DHT22;52925;52.436;-1.952;2022-10-26T02:00:15;15.60;81.20
66128;DHT22;52925;52.436;-1.952;2022-10-26T02:04:15;15.60;81.20
66128;DHT22;52925;52.436;-1.952;2022-10-26T02:05:53;15.60;81.20
66128;DHT22;52925;52.436;-1.952;2022-10-26T02:07:21;15.60;81.20
66128;DHT22;52925;52.436;-1.952;2022-10-26T02:09:05;15.60;81.30
66128;DHT22;52925;52.436;-1.952;2022-10-26T02:10:35;15.60;81.40
66128;DHT22;52925;52.436;-1.952;2022-10-26T02:12:04;15.60;81.30
66128;DHT22;52925;52.436;-1.952;2022-10-26T02:13:30;15.70;81.40
66128;DHT22;52925;52.436;-1.952;2022-10-26T02:14:57;15.60;81.30
66128;DHT22;52925;52.436;-1.952;2022-10-26T02:16:24;15.60;81.20
66128;DHT22;52925;52.436;-1.952;2022-10-26T02:17:49;15.60;81.30
66128;DHT22;52925;52.436;-1.952;2022-10-26T02:19:24;15.60;81.30
66128;DHT22;52925;52.436;-1.952;2022-10-26T02:20:50;15.60;81.30
66128;DHT22;52925;52.436;-1.952;2022-10-26T02:22:15;15.60;81.30
66128;DHT22;52925;52.436;-1.952;2022-10-26T02:23:39;15.60;81.40
66128;DHT22;52925;52.436;-1.952;2022-10-26T02:25:05;15.60;81.40
66128;DHT22;52925;52.436;-1.952;2022-10-26T02:26:27;15.60;81.40
66128;DHT22;52925;52.436;-1.952;2022-10-26T02:27:52;15.60;81.40
66128;DHT22;52925;52.436;-1.952;2022-10-26T02:29:17;15.60;81.50
66128;DHT22;52925;52.436;-1.952;2022-10-26T02:30:39;15.60;81.50
66128;DHT22;52925;52.436;-1.952;2022-10-26T02:32:02;15.60;81.50
66128;DHT22;52925;52.436;-1.952;2022-10-26T02:33:29;15.60;81.50
66128;DHT22;52925;52.436;-1.952;2022-10-26T02:34:51;15.60;81.50
66128;DHT22;52925;52.436;-1.952;2022-10-26T02:36:17;15.60;81.50
66128;DHT22;52925;52.436;-1.952;2022-10-26T02:37:40;15.60;81.50
66128;DHT22;52925;52.436;-1.952;2022-10-26T02:39:03;15.60;81.60
66128;DHT22;52925;52.436;-1.952;2022-10-26T02:40:25;15.60;81.70
66128;DHT22;52925;52.436;-1.952;2022-10-26T02:50:20;15.60;81.70
66128;DHT22;52925;52.436;-1.952;2022-10-26T02:51:46;15.60;81.60
66128;DHT22;52925;52.436;-1.952;2022-10-26T02:53:13;15.60;81.60
66128;DHT22;52925;52.436;-1.952;2022-10-26T02:54:43;15.60;81.70
66128;DHT22;52925;52.436;-1.952;2022-10-26T02:56:13;15.60;81.60
66128;DHT22;52925;52.436;-1.952;2022-10-26T02:57:37;15.60;81.70
66128;DHT22;52925;52.436;-1.952;2022-10-26T02:59:01;15.60;81.80
66128;DHT22;52925;52.436;-1.952;2022-10-26T03:00:23;15.60;81.70
66128;DHT22;52925;52.436;-1.952;2022-10-26T03:01:44;15.60;81.80
66128;DHT22;52925;52.436;-1.952;2022-10-26T03:03:05;15.60;81.80
66128;DHT22;52925;52.436;-1.952;2022-10-26T03:04:29;15.60;81.80
66128;DHT22;52925;52.436;-1.952;2022-10-26T03:05:52;15.60;81.80
66128;DHT22;52925;52.436;-1.952;2022-10-26T03:07:12;15.60;81.80
66128;DHT22;52925;52.436;-1.952;2022-10-26T03:08:38;15.60;81.80
66128;DHT22;52925;52.436;-1.952;2022-10-26T03:09:58;15.60;81.90
66128;DHT22;52925;52.436;-1.952;2022-10-26T03:11:19;15.60;81.70
66128;DHT22;52925;52.436;-1.952;2022-10-26T03:12:40;15.60;81.70
66128;DHT22;52925;52.436;-1.952;2022-10-26T03:13:59;15.60;81.70
66128;DHT22;52925;52.436;-1.952;2022-10-26T03:15:20;15.60;81.80
66128;DHT22;52925;52.436;-1.952;2022-10-26T03:16:41;15.60;81.70
66128;DHT22;52925;52.436;-1.952;2022-10-26T03:18:02;15.60;81.80
66128;DHT22;52925;52.436;-1.952;2022-10-26T03:19:22;15.60;81.90
66128;DHT22;52925;52.436;-1.952;2022-10-26T03:20:43;15.60;81.80
66128;DHT22;52925;52.436;-1.952;2022-10-26T03:22:05;15.60;81.80
66128;DHT22;52925;52.436;-1.952;2022-10-26T03:23:25;15.60;81.80
66128;DHT22;52925;52.436;-1.952;2022-10-26T03:24:46;15.60;81.80
66128;DHT22;52925;52.436;-1.952;2022-10-26T03:26:07;15.60;81.80
66128;DHT22;52925;52.436;-1.952;2022-10-26T03:27:28;15.60;81.80
66128;DHT22;52925;52.436;-1.952;2022-10-26T03:28:48;15.60;81.90
66128;DHT22;52925;52.436;-1.952;2022-10-26T03:30:09;15.60;81.90
66128;DHT22;52925;52.436;-1.952;2022-10-26T03:31:30;15.60;81.90
66128;DHT22;52925;52.436;-1.952;2022-10-26T03:32:51;15.60;82.00
66128;DHT22;52925;52.436;-1.952;2022-10-26T03:34:11;15.60;82.00
66128;DHT22;52925;52.436;-1.952;2022-10-26T03:35:32;15.60;82.00
66128;DHT22;52925;52.436;-1.952;2022-10-26T03:36:53;15.60;82.10
66128;DHT22;52925;52.436;-1.952;2022-10-26T03:38:15;15.60;82.10
66128;DHT22;52925;52.436;-1.952;2022-10-26T03:39:36;15.60;82.00
66128;DHT22;52925;52.436;-1.952;2022-10-26T03:40:57;15.60;82.00
66128;DHT22;52925;52.436;-1.952;2022-10-26T03:42:18;15.60;82.10
66128;DHT22;52925;52.436;-1.952;2022-10-26T03:43:39;15.60;82.10
66128;DHT22;52925;52.436;-1.952;2022-10-26T03:44:58;15.60;82.10
66128;DHT22;52925;52.436;-1.952;2022-10-26T03:46:19;15.50;82.00
66128;DHT22;52925;52.436;-1.952;2022-10-26T03:47:43;15.60;82.10
66128;DHT22;52925;52.436;-1.952;2022-10-26T03:49:04;15.60;82.10
66128;DHT22;52925;52.436;-1.952;2022-10-26T03:50:25;15.60;82.00
66128;DHT22;52925;52.436;-1.952;2022-10-26T03:51:46;15.60;82.20
66128;DHT22;52925;52.436;-1.952;2022-10-26T03:53:06;15.60;82.30
66128;DHT22;52925;52.436;-1.952;2022-10-26T03:54:29;15.60;82.30
66128;DHT22;52925;52.436;-1.952;2022-10-26T03:55:48;15.60;82.40
66128;DHT22;52925;52.436;-1.952;2022-10-26T03:57:09;15.60;82.40
66128;DHT22;52925;52.436;-1.952;2022-10-26T03:58:29;15.60;82.50
66128;DHT22;52925;52.436;-1.952;2022-10-26T03:59:50;15.60;82.60
66128;DHT22;52925;52.436;-1.952;2022-10-26T04:01:09;15.60;82.70
66128;DHT22;52925;52.436;-1.952;2022-10-26T04:02:30;15.60;82.70
66128;DHT22;52925;52.436;-1.952;2022-10-26T04:03:50;15.60;82.80
66128;DHT22;52925;52.436;-1.952;2022-10-26T04:05:11;15.60;82.80
66128;DHT22;52925;52.436;-1.952;2022-10-26T04:06:32;15.60;82.80
66128;DHT22;52925;52.436;-1.952;2022-10-26T04:07:53;15.60;82.70
66128;DHT22;52925;52.436;-1.952;2022-10-26T04:09:14;15.60;82.80
66128;DHT22;52925;52.436;-1.952;2022-10-26T04:10:36;15.60;82.90
66128;DHT22;52925;52.436;-1.952;2022-10-26T04:11:56;15.60;82.80
66128;DHT22;52925;52.436;-1.952;2022-10-26T04:13:17;15.60;82.80
66128;DHT22;52925;52.436;-1.952;2022-10-26T04:14:37;15.60;83.20
66128;DHT22;52925;52.436;-1.952;2022-10-26T04:15:57;15.60;82.70
66128;DHT22;52925;52.436;-1.952;2022-10-26T04:17:18;15.60;82.80
66128;DHT22;52925;52.436;-1.952;2022-10-26T04:18:39;15.60;82.70
66128;DHT22;52925;52.436;-1.952;2022-10-26T04:19:59;15.60;82.70
66128;DHT22;52925;52.436;-1.952;2022-10-26T04:21:20;15.60;82.90
66128;DHT22;52925;52.436;-1.952;2022-10-26T04:22:39;15.60;82.80
66128;DHT22;52925;52.436;-1.952;2022-10-26T04:24:00;15.60;83.00
66128;DHT22;52925;52.436;-1.952;2022-10-26T04:25:21;15.60;82.90
66128;DHT22;52925;52.436;-1.952;2022-10-26T04:26:42;15.60;82.90
66128;DHT22;52925;52.436;-1.952;2022-10-26T04:28:06;15.60;82.80
66128;DHT22;52925;52.436;-1.952;2022-10-26T04:29:27;15.60;82.80
66128;DHT22;52925;52.436;-1.952;2022-10-26T04:30:47;15.60;82.90
66128;DHT22;52925;52.436;-1.952;2022-10-26T04:32:08;15.60;82.90
66128;DHT22;52925;52.436;-1.952;2022-10-26T04:33:27;15.60;82.80
66128;DHT22;52925;52.436;-1.952;2022-10-26T04:34:48;15.60;82.80
66128;DHT22;52925;52.436;-1.952;2022-10-26T04:36:08;15.60;82.80
66128;DHT22;52925;52.436;-1.952;2022-10-26T04:37:29;15.60;82.70
66128;DHT22;52925;52.436;-1.952;2022-10-26T04:38:48;15.60;82.70
66128;DHT22;52925;52.436;-1.952;2022-10-26T04:40:09;15.60;82.80
66128;DHT22;52925;52.436;-1.952;2022-10-26T04:41:29;15.60;82.80
66128;DHT22;52925;52.436;-1.952;2022-10-26T04:42:52;15.60;82.70
66128;DHT22;52925;52.436;-1.952;2022-10-26T04:44:11;15.50;82.60
66128;DHT22;52925;52.436;-1.952;2022-10-26T04:45:32;15.60;82.70
66128;DHT22;52925;52.436;-1.952;2022-10-26T04:46:52;15.60;82.70
66128;DHT22;52925;52.436;-1.952;2022-10-26T04:48:13;15.60;82.70
66128;DHT22;52925;52.436;-1.952;2022-10-26T04:49:34;15.60;82.80
66128;DHT22;52925;52.436;-1.952;2022-10-26T04:50:57;15.60;82.70
66128;DHT22;52925;52.436;-1.952;2022-10-26T04:52:18;15.60;82.70
66128;DHT22;52925;52.436;-1.952;2022-10-26T04:53:38;15.60;82.60
66128;DHT22;52925;52.436;-1.952;2022-10-26T04:54:59;15.60;82.70
66128;DHT22;52925;52.436;-1.952;2022-10-26T04:56:19;15.60;82.70
66128;DHT22;52925;52.436;-1.952;2022-10-26T04:57:43;15.60;82.50
66128;DHT22;52925;52.436;-1.952;2022-10-26T04:59:05;15.60;82.50
66128;DHT22;52925;52.436;-1.952;2022-10-26T05:00:26;15.60;82.60
66128;DHT22;52925;52.436;-1.952;2022-10-26T05:01:48;15.60;82.60
66128;DHT22;52925;52.436;-1.952;2022-10-26T05:03:09;15.60;82.70
66128;DHT22;52925;52.436;-1.952;2022-10-26T05:04:29;15.60;82.70
66128;DHT22;52925;52.436;-1.952;2022-10-26T05:05:49;15.60;82.70
66128;DHT22;52925;52.436;-1.952;2022-10-26T05:07:10;15.60;82.70
66128;DHT22;52925;52.436;-1.952;2022-10-26T05:08:31;15.60;82.60
66128;DHT22;52925;52.436;-1.952;2022-10-26T05:09:52;15.60;82.60
66128;DHT22;52925;52.436;-1.952;2022-10-26T05:11:13;15.60;82.60
66128;DHT22;52925;52.436;-1.952;2022-10-26T05:12:33;15.50;82.50
66128;DHT22;52925;52.436;-1.952;2022-10-26T05:13:54;15.50;82.50
66128;DHT22;52925;52.436;-1.952;2022-10-26T05:15:16;15.60;82.50
66128;DHT22;52925;52.436;-1.952;2022-10-26T05:16:36;15.60;82.50
66128;DHT22;52925;52.436;-1.952;2022-10-26T05:17:59;15.50;82.50
66128;DHT22;52925;52.436;-1.952;2022-10-26T05:19:21;15.50;82.50
66128;DHT22;52925;52.436;-1.952;2022-10-26T05:20:41;15.50;82.50
66128;DHT22;52925;52.436;-1.952;2022-10-26T05:22:03;15.60;82.60
66128;DHT22;52925;52.436;-1.952;2022-10-26T05:23:23;15.50;82.40
66128;DHT22;52925;52.436;-1.952;2022-10-26T05:24:44;15.50;82.50
66128;DHT22;52925;52.436;-1.952;2022-10-26T05:26:05;15.50;82.50
66128;DHT22;52925;52.436;-1.952;2022-10-26T05:27:25;15.50;82.50
66128;DHT22;52925;52.436;-1.952;2022-10-26T05:28:46;15.50;82.40
66128;DHT22;52925;52.436;-1.952;2022-10-26T05:30:07;15.50;82.40
66128;DHT22;52925;52.436;-1.952;2022-10-26T05:31:29;15.50;82.30
66128;DHT22;52925;52.436;-1.952;2022-10-26T05:32:53;15.50;82.40
66128;DHT22;52925;52.436;-1.952;2022-10-26T05:34:13;15.50;82.40
66128;DHT22;52925;52.436;-1.952;2022-10-26T05:35:34;15.50;82.40
66128;DHT22;52925;52.436;-1.952;2022-10-26T05:36:55;15.60;82.40
66128;DHT22;52925;52.436;-1.952;2022-10-26T05:38:16;15.50;82.30
66128;DHT22;52925;52.436;-1.952;2022-10-26T05:39:36;15.60;82.30
66128;DHT22;52925;52.436;-1.952;2022-10-26T05:40:57;15.60;82.30
66128;DHT22;52925;52.436;-1.952;2022-10-26T05:42:19;15.50;82.40
66128;DHT22;52925;52.436;-1.952;2022-10-26T05:43:39;15.50;82.30
66128;DHT22;52925;52.436;-1.952;2022-10-26T05:45:00;15.50;82.40
66128;DHT22;52925;52.436;-1.952;2022-10-26T05:46:20;15.50;82.30
66128;DHT22;52925;52.436;-1.952;2022-10-26T05:47:43;15.50;82.30
66128;DHT22;52925;52.436;-1.952;2022-10-26T05:49:04;15.50;82.40
66128;DHT22;52925;52.436;-1.952;2022-10-26T05:50:24;15.50;82.30
66128;DHT22;52925;52.436;-1.952;2022-10-26T05:51:45;15.50;82.30
66128;DHT22;52925;52.436;-1.952;2022-10-26T05:53:06;15.50;82.30
66128;DHT22;52925;52.436;-1.952;2022-10-26T05:54:26;15.60;82.30
66128;DHT22;52925;52.436;-1.952;2022-10-26T05:55:48;15.50;82.20
66128;DHT22;52925;52.436;-1.952;2022-10-26T05:57:10;15.50;82.10
66128;DHT22;52925;52.436;-1.952;2022-10-26T05:58:32;15.50;82.10
66128;DHT22;52925;52.436;-1.952;2022-10-26T05:59:53;15.50;82.10
66128;DHT22;52925;52.436;-1.952;2022-10-26T06:01:22;15.50;82.20
66128;DHT22;52925;52.436;-1.952;2022-10-26T06:02:59;15.50;82.20
66128;DHT22;52925;52.436;-1.952;2022-10-26T06:04:29;15.50;82.20
66128;DHT22;52925;52.436;-1.952;2022-10-26T06:05:55;15.50;82.20
66128;DHT22;52925;52.436;-1.952;2022-10-26T06:07:18;15.50;82.10
66128;DHT22;52925;52.436;-1.952;2022-10-26T06:08:40;15.50;82.10
66128;DHT22;52925;52.436;-1.952;2022-10-26T06:10:02;15.50;82.00
66128;DHT22;52925;52.436;-1.952;2022-10-26T06:11:24;15.50;82.00
66128;DHT22;52925;52.436;-1.952;2022-10-26T06:12:45;15.60;82.00
66128;DHT22;52925;52.436;-1.952;2022-10-26T06:14:07;15.50;82.00
66128;DHT22;52925;52.436;-1.952;2022-10-26T06:15:29;15.60;82.00
66128;DHT22;52925;52.436;-1.952;2022-10-26T06:17:03;15.60;82.10
66128;DHT22;52925;52.436;-1.952;2022-10-26T06:18:35;15.60;82.00
66128;DHT22;52925;52.436;-1.952;2022-10-26T06:20:11;15.60;82.00
66128;DHT22;52925;52.436;-1.952;2022-10-26T06:21:49;15.50;82.00
66128;DHT22;52925;52.436;-1.952;2022-10-26T06:23:30;15.50;82.00
66128;DHT22;52925;52.436;-1.952;2022-10-26T06:24:59;15.50;82.00
66128;DHT22;52925;52.436;-1.952;2022-10-26T06:26:31;15.50;82.00
66128;DHT22;52925;52.436;-1.952;2022-10-26T06:28:02;15.50;82.00
66128;DHT22;52925;52.436;-1.952;2022-10-26T06:29:35;15.50;82.00
66128;DHT22;52925;52.436;-1.952;2022-10-26T06:30:58;15.60;82.00
66128;DHT22;52925;52.436;-1.952;2022-10-26T06:32:19;15.50;82.00
66128;DHT22;52925;52.436;-1.952;2022-10-26T06:33:41;15.50;82.00
66128;DHT22;52925;52.436;-1.952;2022-10-26T06:35:12;15.50;82.00
66128;DHT22;52925;52.436;-1.952;2022-10-26T06:36:35;15.50;82.00
66128;DHT22;52925;52.436;-1.952;2022-10-26T06:38:02;15.50;82.00
66128;DHT22;52925;52.436;-1.952;2022-10-26T06:39:25;15.50;82.00
66128;DHT22;52925;52.436;-1.952;2022-10-26T06:40:50;15.50;82.00
66128;DHT22;52925;52.436;-1.952;2022-10-26T06:42:12;15.50;82.00
66128;DHT22;52925;52.436;-1.952;2022-10-26T06:43:34;15.60;82.10
66128;DHT22;52925;52.436;-1.952;2022-10-26T06:44:55;15.50;82.10
66128;DHT22;52925;52.436;-1.952;2022-10-26T06:46:24;15.50;82.10
66128;DHT22;52925;52.436;-1.952;2022-10-26T06:47:52;15.50;82.10
66128;DHT22;52925;52.436;-1.952;2022-10-26T06:49:18;15.50;82.20
66128;DHT22;52925;52.436;-1.952;2022-10-26T06:50:48;15.50;82.20
66128;DHT22;52925;52.436;-1.952;2022-10-26T06:52:14;15.50;82.20
66128;DHT22;52925;52.436;-1.952;2022-10-26T06:53:41;15.50;82.10
66128;DHT22;52925;52.436;-1.952;2022-10-26T06:55:03;15.50;82.20
66128;DHT22;52925;52.436;-1.952;2022-10-26T06:56:25;15.50;82.10
66128;DHT22;52925;52.436;-1.952;2022-10-26T06:57:46;15.60;82.20
66128;DHT22;52925;52.436;-1.952;2022-10-26T06:59:12;15.50;82.20
66128;DHT22;52925;52.436;-1.952;2022-10-26T07:00:34;15.50;82.20
66128;DHT22;52925;52.436;-1.952;2022-10-26T07:01:54;15.50;82.20
66128;DHT22;52925;52.436;-1.952;2022-10-26T07:03:16;15.50;82.20
66128;DHT22;52925;52.436;-1.952;2022-10-26T07:04:38;15.50;82.20
66128;DHT22;52925;52.436;-1.952;2022-10-26T07:05:58;15.50;82.20
66128;DHT22;52925;52.436;-1.952;2022-10-26T07:07:21;15.50;82.20
66128;DHT22;52925;52.436;-1.952;2022-10-26T07:08:42;15.50;82.20
66128;DHT22;52925;52.436;-1.952;2022-10-26T07:10:03;15.60;82.20
66128;DHT22;52925;52.436;-1.952;2022-10-26T07:11:25;15.50;82.20
66128;DHT22;52925;52.436;-1.952;2022-10-26T07:12:46;15.50;82.30
66128;DHT22;52925;52.436;-1.952;2022-10-26T07:14:08;15.50;82.30
66128;DHT22;52925;52.436;-1.952;2022-10-26T07:15:28;15.50;82.30
66128;DHT22;52925;52.436;-1.952;2022-10-26T07:16:49;15.50;82.40
66128;DHT22;52925;52.436;-1.952;2022-10-26T07:18:10;15.50;82.40
66128;DHT22;52925;52.436;-1.952;2022-10-26T07:19:30;15.50;82.30
66128;DHT22;52925;52.436;-1.952;2022-10-26T07:20:53;15.50;82.30
66128;DHT22;52925;52.436;-1.952;2022-10-26T07:22:13;15.50;82.30
66128;DHT22;52925;52.436;-1.952;2022-10-26T07:23:34;15.50;82.30
66128;DHT22;52925;52.436;-1.952;2022-10-26T07:24:55;15.50;83.00
66128;DHT22;52925;52.436;-1.952;2022-10-26T07:26:16;15.50;82.40
66128;DHT22;52925;52.436;-1.952;2022-10-26T07:27:37;15.50;82.40
66128;DHT22;52925;52.436;-1.952;2022-10-26T07:28:58;15.60;82.40
66128;DHT22;52925;52.436;-1.952;2022-10-26T07:30:19;15.50;82.40
66128;DHT22;52925;52.436;-1.952;2022-10-26T07:31:39;15.50;82.40
66128;DHT22;52925;52.436;-1.952;2022-10-26T07:33:01;15.50;82.40
66128;DHT22;52925;52.436;-1.952;2022-10-26T07:34:22;15.50;83.10
66128;DHT22;52925;52.436;-1.952;2022-10-26T07:35:42;15.50;82.50
66128;DHT22;52925;52.436;-1.952;2022-10-26T07:37:04;15.60;82.50
66128;DHT22;52925;52.436;-1.952;2022-10-26T07:38:25;15.60;82.50
66128;DHT22;52925;52.436;-1.952;2022-10-26T07:39:46;15.60;82.40
66128;DHT22;52925;52.436;-1.952;2022-10-26T07:41:05;15.60;82.30
66128;DHT22;52925;52.436;-1.952;2022-10-26T07:42:26;15.60;82.20
66128;DHT22;52925;52.436;-1.952;2022-10-26T07:43:46;15.60;82.20
66128;DHT22;52925;52.436;-1.952;2022-10-26T07:45:09;15.70;82.20
66128;DHT22;52925;52.436;-1.952;2022-10-26T07:46:30;15.70;82.10
66128;DHT22;52925;52.436;-1.952;2022-10-26T07:47:51;15.70;82.10
66128;DHT22;52925;52.436;-1.952;2022-10-26T07:49:11;15.70;82.10
66128;DHT22;52925;52.436;-1.952;2022-10-26T07:50:32;15.70;82.20
66128;DHT22;52925;52.436;-1.952;2022-10-26T07:51:53;15.70;82.10
66128;DHT22;52925;52.436;-1.952;2022-10-26T07:53:15;15.70;82.20
66128;DHT22;52925;52.436;-1.952;2022-10-26T07:54:37;15.70;82.20
66128;DHT22;52925;52.436;-1.952;2022-10-26T07:55:57;15.70;82.20
66128;DHT22;52925;52.436;-1.952;2022-10-26T07:57:18;15.70;83.00
66128;DHT22;52925;52.436;-1.952;2022-10-26T07:58:39;15.70;82.20
66128;DHT22;52925;52.436;-1.952;2022-10-26T07:59:59;15.70;82.10
66128;DHT22;52925;52.436;-1.952;2022-10-26T08:01:20;15.70;82.10
66128;DHT22;52925;52.436;-1.952;2022-10-26T08:02:40;15.70;82.20
66128;DHT22;52925;52.436;-1.952;2022-10-26T08:04:01;15.70;82.30
66128;DHT22;52925;52.436;-1.952;2022-10-26T08:05:22;15.70;82.30
66128;DHT22;52925;52.436;-1.952;2022-10-26T08:06:44;15.70;82.30
66128;DHT22;52925;52.436;-1.952;2022-10-26T08:08:05;15.70;82.40
66128;DHT22;52925;52.436;-1.952;2022-10-26T08:09:27;15.70;82.40
66128;DHT22;52925;52.436;-1.952;2022-10-26T08:10:48;15.70;82.40
66128;DHT22;52925;52.436;-1.952;2022-10-26T08:12:10;15.70;82.50
66128;DHT22;52925;52.436;-1.952;2022-10-26T08:13:32;15.70;82.40
66128;DHT22;52925;52.436;-1.952;2022-10-26T08:14:53;15.70;82.50
66128;DHT22;52925;52.436;-1.952;2022-10-26T08:16:14;15.70;82.50
66128;DHT22;52925;52.436;-1.952;2022-10-26T08:17:36;15.70;82.50
66128;DHT22;52925;52.436;-1.952;2022-10-26T08:18:56;15.70;82.50
66128;DHT22;52925;52.436;-1.952;2022-10-26T08:20:17;15.70;82.40
66128;DHT22;52925;52.436;-1.952;2022-10-26T08:21:38;15.70;82.40
66128;DHT22;52925;52.436;-1.952;2022-10-26T08:22:59;15.60;82.40
66128;DHT22;52925;52.436;-1.952;2022-10-26T08:24:20;15.70;82.50
66128;DHT22;52925;52.436;-1.952;2022-10-26T08:25:42;15.70;82.50
66128;DHT22;52925;52.436;-1.952;2022-10-26T08:27:03;15.70;82.50
66128;DHT22;52925;52.436;-1.952;2022-10-26T08:28:24;15.70;82.50
66128;DHT22;52925;52.436;-1.952;2022-10-26T08:29:43;15.70;82.50
66128;DHT22;52925;52.436;-1.952;2022-10-26T08:31:05;15.70;82.50
66128;DHT22;52925;52.436;-1.952;2022-10-26T08:32:26;15.70;82.50
66128;DHT22;52925;52.436;-1.952;2022-10-26T08:33:46;15.70;82.50
66128;DHT22;52925;52.436;-1.952;2022-10-26T08:35:07;15.70;82.50
66128;DHT22;52925;52.436;-1.952;2022-10-26T08:36:28;15.70;82.60
66128;DHT22;52925;52.436;-1.952;2022-10-26T08:37:51;15.70;82.70
66128;DHT22;52925;52.436;-1.952;2022-10-26T08:39:11;15.70;82.70
66128;DHT22;52925;52.436;-1.952;2022-10-26T08:40:37;15.70;82.70
66128;DHT22;52925;52.436;-1.952;2022-10-26T08:42:05;15.70;82.70
66128;DHT22;52925;52.436;-1.952;2022-10-26T08:43:30;15.70;82.70
66128;DHT22;52925;52.436;-1.952;2022-10-26T08:44:56;15.70;82.80
66128;DHT22;52925;52.436;-1.952;2022-10-26T08:46:20;15.70;82.70
66128;DHT22;52925;52.436;-1.952;2022-10-26T08:47:46;15.70;82.80
66128;DHT22;52925;52.436;-1.952;2022-10-26T08:49:17;15.70;82.80
66128;DHT22;52925;52.436;-1.952;2022-10-26T08:50:40;15.70;82.80
66128;DHT22;52925;52.436;-1.952;2022-10-26T08:52:04;15.70;82.90